sensor_id;sensor_type;location;lat;lon;timestamp;temperature;humidity
13944;DHT22;7044;53.286;8.534;2022-08-01T00:01:54;21.70;99.90
13944;DHT22;7044;53.286;8.534;2022-08-01T00:04:20;20.40;99.90
13944;DHT22;7044;53.286;8.534;2022-08-01T00:06:49;20.50;99.90
13944;DHT22;7044;53.286;8.534;2022-08-01T00:09:15;20.40;99.90
13944;DHT22;7044;53.286;8.534;2022-08-01T00:11:42;20.40;99.90
13944;DHT22;7044;53.286;8.534;2022-08-01T00:14:09;20.30;99.90
13944;DHT22;7044;53.286;8.534;2022-08-01T00:16:36;20.30;99.90
13944;DHT22;7044;53.286;8.534;2022-08-01T00:21:30;20.30;99.90
13944;DHT22;7044;53.286;8.534;2022-08-01T00:23:58;20.30;99.90
13944;DHT22;7044;53.286;8.534;2022-08-01T00:26:25;20.20;99.90
13944;DHT22;7044;53.286;8.534;2022-08-01T00:28:52;20.30;99.90
13944;DHT22;7044;53.286;8.534;2022-08-01T00:31:19;20.40;99.90
13944;DHT22;7044;53.286;8.534;2022-08-01T00:33:46;20.30;99.90
13944;DHT22;7044;53.286;8.534;2022-08-01T00:36:12;20.30;99.90
13944;DHT22;7044;53.286;8.534;2022-08-01T00:41:08;20.30;99.90
13944;DHT22;7044;53.286;8.534;2022-08-01T00:43:34;20.30;99.90
13944;DHT22;7044;53.286;8.534;2022-08-01T00:46:01;20.30;99.90
13944;DHT22;7044;53.286;8.534;2022-08-01T00:50:55;20.40;99.90
13944;DHT22;7044;53.286;8.534;2022-08-01T00:53:22;20.20;99.90
13944;DHT22;7044;53.286;8.534;2022-08-01T00:58:17;20.30;99.90
13944;DHT22;7044;53.286;8.534;2022-08-01T01:00:44;20.30;99.90
13944;DHT22;7044;53.286;8.534;2022-08-01T01:03:11;20.20;99.90
13944;DHT22;7044;53.286;8.534;2022-08-01T01:05:45;20.20;99.90
13944;DHT22;7044;53.286;8.534;2022-08-01T01:08:20;20.30;99.90
13944;DHT22;7044;53.286;8.534;2022-08-01T01:10:53;20.30;99.90
13944;DHT22;7044;53.286;8.534;2022-08-01T01:13:25;20.30;99.90
13944;DHT22;7044;53.286;8.534;2022-08-01T01:15:59;19.80;99.90
13944;DHT22;7044;53.286;8.534;2022-08-01T01:18:31;20.20;99.90
13944;DHT22;7044;53.286;8.534;2022-08-01T01:21:03;20.30;99.90
13944;DHT22;7044;53.286;8.534;2022-08-01T01:23:44;20.20;99.90
13944;DHT22;7044;53.286;8.534;2022-08-01T01:26:23;20.20;99.90
13944;DHT22;7044;53.286;8.534;2022-08-01T01:29:05;20.40;99.90
13944;DHT22;7044;53.286;8.534;2022-08-01T01:31:39;20.20;99.90
13944;DHT22;7044;53.286;8.534;2022-08-01T01:34:08;20.20;99.90
13944;DHT22;7044;53.286;8.534;2022-08-01T01:36:36;20.30;99.90
13944;DHT22;7044;53.286;8.534;2022-08-01T01:39:04;20.20;99.90
13944;DHT22;7044;53.286;8.534;2022-08-01T01:41:33;20.00;99.90
13944;DHT22;7044;53.286;8.534;2022-08-01T01:44:04;20.20;99.90
13944;DHT22;7044;53.286;8.534;2022-08-01T01:46:32;19.80;99.90
13944;DHT22;7044;53.286;8.534;2022-08-01T01:49:00;20.20;99.90
13944;DHT22;7044;53.286;8.534;2022-08-01T01:51:28;20.20;99.90
13944;DHT22;7044;53.286;8.534;2022-08-01T01:53:57;20.20;99.90
13944;DHT22;7044;53.286;8.534;2022-08-01T01:56:26;20.10;99.90
13944;DHT22;7044;53.286;8.534;2022-08-01T01:58:56;20.20;99.90
13944;DHT22;7044;53.286;8.534;2022-08-01T02:01:28;20.10;99.90
13944;DHT22;7044;53.286;8.534;2022-08-01T02:03:56;20.10;99.90
13944;DHT22;7044;53.286;8.534;2022-08-01T02:06:24;20.20;99.90
13944;DHT22;7044;53.286;8.534;2022-08-01T02:08:52;20.10;99.90
13944;DHT22;7044;53.286;8.534;2022-08-01T02:11:19;20.00;99.90
13944;DHT22;7044;53.286;8.534;2022-08-01T02:13:52;19.90;99.90
13944;DHT22;7044;53.286;8.534;2022-08-01T02:16:21;19.90;99.90
13944;DHT22;7044;53.286;8.534;2022-08-01T02:18:50;19.90;99.90
13944;DHT22;7044;53.286;8.534;2022-08-01T02:21:23;19.90;99.90
13944;DHT22;7044;53.286;8.534;2022-08-01T02:23:51;19.90;99.90
13944;DHT22;7044;53.286;8.534;2022-08-01T02:26:19;19.70;99.90
13944;DHT22;7044;53.286;8.534;2022-08-01T02:28:50;20.00;99.90
13944;DHT22;7044;53.286;8.534;2022-08-01T02:31:21;19.80;99.90
13944;DHT22;7044;53.286;8.534;2022-08-01T02:33:54;19.80;99.90
13944;DHT22;7044;53.286;8.534;2022-08-01T02:36:25;19.70;99.90
13944;DHT22;7044;53.286;8.534;2022-08-01T02:38:54;19.70;99.90
13944;DHT22;7044;53.286;8.534;2022-08-01T02:41:23;19.70;99.90
13944;DHT22;7044;53.286;8.534;2022-08-01T02:43:53;19.90;99.90
13944;DHT22;7044;53.286;8.534;2022-08-01T02:46:27;19.70;99.90
13944;DHT22;7044;53.286;8.534;2022-08-01T02:49:00;19.70;99.90
13944;DHT22;7044;53.286;8.534;2022-08-01T02:51:29;19.70;99.90
13944;DHT22;7044;53.286;8.534;2022-08-01T02:53:56;19.70;99.90
13944;DHT22;7044;53.286;8.534;2022-08-01T02:56:25;19.70;99.90
13944;DHT22;7044;53.286;8.534;2022-08-01T02:59:01;19.70;99.90
13944;DHT22;7044;53.286;8.534;2022-08-01T03:01:29;19.70;99.90
13944;DHT22;7044;53.286;8.534;2022-08-01T03:03:58;19.70;99.90
13944;DHT22;7044;53.286;8.534;2022-08-01T03:06:26;19.60;99.90
13944;DHT22;7044;53.286;8.534;2022-08-01T03:08:53;19.60;99.90
13944;DHT22;7044;53.286;8.534;2022-08-01T03:11:22;19.60;99.90
13944;DHT22;7044;53.286;8.534;2022-08-01T03:13:52;19.50;99.90
13944;DHT22;7044;53.286;8.534;2022-08-01T03:16:21;19.50;99.90
13944;DHT22;7044;53.286;8.534;2022-08-01T03:18:51;19.70;99.90
13944;DHT22;7044;53.286;8.534;2022-08-01T03:21:22;19.60;99.90
13944;DHT22;7044;53.286;8.534;2022-08-01T03:23:50;19.40;99.90
13944;DHT22;7044;53.286;8.534;2022-08-01T03:26:23;22.60;99.90
13944;DHT22;7044;53.286;8.534;2022-08-01T03:28:51;19.40;99.90
13944;DHT22;7044;53.286;8.534;2022-08-01T03:31:20;19.20;99.90
13944;DHT22;7044;53.286;8.534;2022-08-01T03:33:47;19.30;99.90
13944;DHT22;7044;53.286;8.534;2022-08-01T03:36:14;19.40;99.90
13944;DHT22;7044;53.286;8.534;2022-08-01T03:38:44;19.40;99.90
13944;DHT22;7044;53.286;8.534;2022-08-01T03:41:15;19.30;99.90
13944;DHT22;7044;53.286;8.534;2022-08-01T03:43:48;19.30;99.90
13944;DHT22;7044;53.286;8.534;2022-08-01T03:46:21;19.30;99.90
13944;DHT22;7044;53.286;8.534;2022-08-01T03:48:50;19.40;99.90
13944;DHT22;7044;53.286;8.534;2022-08-01T03:51:20;19.30;99.90
13944;DHT22;7044;53.286;8.534;2022-08-01T03:53:49;19.30;99.90
13944;DHT22;7044;53.286;8.534;2022-08-01T03:56:18;18.70;99.90
13944;DHT22;7044;53.286;8.534;2022-08-01T03:58:46;19.30;99.90
13944;DHT22;7044;53.286;8.534;2022-08-01T04:01:14;19.30;99.90
13944;DHT22;7044;53.286;8.534;2022-08-01T04:06:08;19.20;99.90
13944;DHT22;7044;53.286;8.534;2022-08-01T04:08:36;19.20;99.90
13944;DHT22;7044;53.286;8.534;2022-08-01T04:11:04;19.20;99.90
13944;DHT22;7044;53.286;8.534;2022-08-01T04:13:33;19.10;99.90
13944;DHT22;7044;53.286;8.534;2022-08-01T04:16:00;19.10;99.90
13944;DHT22;7044;53.286;8.534;2022-08-01T04:18:27;19.10;99.90
13944;DHT22;7044;53.286;8.534;2022-08-01T04:20:53;19.10;99.90
13944;DHT22;7044;53.286;8.534;2022-08-01T04:23:23;19.10;99.90
13944;DHT22;7044;53.286;8.534;2022-08-01T04:25:51;19.10;99.90
13944;DHT22;7044;53.286;8.534;2022-08-01T04:28:22;18.80;99.90
13944;DHT22;7044;53.286;8.534;2022-08-01T04:30:54;19.10;99.90
13944;DHT22;7044;53.286;8.534;2022-08-01T04:33:22;19.00;99.90
13944;DHT22;7044;53.286;8.534;2022-08-01T04:35:50;19.00;99.90
13944;DHT22;7044;53.286;8.534;2022-08-01T04:38:20;19.00;99.90
13944;DHT22;7044;53.286;8.534;2022-08-01T04:40:48;19.20;99.90
13944;DHT22;7044;53.286;8.534;2022-08-01T04:43:16;19.00;99.90
13944;DHT22;7044;53.286;8.534;2022-08-01T04:45:46;19.10;99.90
13944;DHT22;7044;53.286;8.534;2022-08-01T04:48:15;19.00;99.90
13944;DHT22;7044;53.286;8.534;2022-08-01T04:50:43;19.00;99.90
13944;DHT22;7044;53.286;8.534;2022-08-01T04:53:13;19.00;99.90
13944;DHT22;7044;53.286;8.534;2022-08-01T04:55:40;19.00;99.90
13944;DHT22;7044;53.286;8.534;2022-08-01T04:58:08;19.10;99.90
13944;DHT22;7044;53.286;8.534;2022-08-01T05:03:04;19.00;99.90
13944;DHT22;7044;53.286;8.534;2022-08-01T05:05:30;18.90;99.90
13944;DHT22;7044;53.286;8.534;2022-08-01T05:07:57;19.00;99.90
13944;DHT22;7044;53.286;8.534;2022-08-01T05:10:24;18.80;99.90
13944;DHT22;7044;53.286;8.534;2022-08-01T05:12:52;18.80;99.90
13944;DHT22;7044;53.286;8.534;2022-08-01T05:15:19;18.80;99.90
13944;DHT22;7044;53.286;8.534;2022-08-01T05:17:46;18.80;99.90
13944;DHT22;7044;53.286;8.534;2022-08-01T05:20:14;18.40;99.90
13944;DHT22;7044;53.286;8.534;2022-08-01T05:22:41;18.50;99.90
13944;DHT22;7044;53.286;8.534;2022-08-01T05:25:09;18.50;99.90
13944;DHT22;7044;53.286;8.534;2022-08-01T05:27:35;18.30;99.90
13944;DHT22;7044;53.286;8.534;2022-08-01T05:30:06;18.20;99.90
13944;DHT22;7044;53.286;8.534;2022-08-01T05:32:33;18.10;99.90
13944;DHT22;7044;53.286;8.534;2022-08-01T05:37:29;18.20;99.90
13944;DHT22;7044;53.286;8.534;2022-08-01T05:39:55;18.10;99.90
13944;DHT22;7044;53.286;8.534;2022-08-01T05:42:22;17.90;99.90
13944;DHT22;7044;53.286;8.534;2022-08-01T05:44:49;15.30;99.90
13944;DHT22;7044;53.286;8.534;2022-08-01T05:47:16;18.10;99.90
13944;DHT22;7044;53.286;8.534;2022-08-01T05:49:43;17.80;99.90
13944;DHT22;7044;53.286;8.534;2022-08-01T05:52:11;17.90;99.90
13944;DHT22;7044;53.286;8.534;2022-08-01T05:54:39;17.90;99.90
13944;DHT22;7044;53.286;8.534;2022-08-01T05:57:06;17.60;99.90
13944;DHT22;7044;53.286;8.534;2022-08-01T05:59:33;17.70;99.90
13944;DHT22;7044;53.286;8.534;2022-08-01T06:02:00;17.50;99.90
13944;DHT22;7044;53.286;8.534;2022-08-01T06:04:26;15.30;99.90
13944;DHT22;7044;53.286;8.534;2022-08-01T06:06:53;17.60;99.90
13944;DHT22;7044;53.286;8.534;2022-08-01T06:09:20;17.60;99.90
13944;DHT22;7044;53.286;8.534;2022-08-01T06:11:48;17.60;99.90
13944;DHT22;7044;53.286;8.534;2022-08-01T06:14:16;17.80;99.90
13944;DHT22;7044;53.286;8.534;2022-08-01T06:16:42;17.50;99.90
13944;DHT22;7044;53.286;8.534;2022-08-01T06:19:09;17.40;99.90
13944;DHT22;7044;53.286;8.534;2022-08-01T06:21:36;17.60;99.90
13944;DHT22;7044;53.286;8.534;2022-08-01T06:26:31;17.60;99.90
13944;DHT22;7044;53.286;8.534;2022-08-01T06:28:59;17.60;99.90
13944;DHT22;7044;53.286;8.534;2022-08-01T06:31:26;17.80;99.90
13944;DHT22;7044;53.286;8.534;2022-08-01T06:33:53;17.60;99.90
13944;DHT22;7044;53.286;8.534;2022-08-01T06:38:48;17.60;99.90
13944;DHT22;7044;53.286;8.534;2022-08-01T06:41:15;17.70;99.90
13944;DHT22;7044;53.286;8.534;2022-08-01T06:43:42;17.60;99.90
13944;DHT22;7044;53.286;8.534;2022-08-01T06:46:10;17.50;99.90
13944;DHT22;7044;53.286;8.534;2022-08-01T06:51:05;17.80;99.90
13944;DHT22;7044;53.286;8.534;2022-08-01T06:53:36;17.60;99.90
13944;DHT22;7044;53.286;8.534;2022-08-01T06:56:04;17.60;99.90
13944;DHT22;7044;53.286;8.534;2022-08-01T06:58:31;16.40;99.90
13944;DHT22;7044;53.286;8.534;2022-08-01T07:03:28;17.50;99.90
13944;DHT22;7044;53.286;8.534;2022-08-01T07:08:22;18.50;99.90
13944;DHT22;7044;53.286;8.534;2022-08-01T07:10:49;17.50;99.90
13944;DHT22;7044;53.286;8.534;2022-08-01T07:13:16;17.70;99.90
13944;DHT22;7044;53.286;8.534;2022-08-01T07:15:46;17.50;99.10
13944;DHT22;7044;53.286;8.534;2022-08-01T07:18:13;19.80;99.90
13944;DHT22;7044;53.286;8.534;2022-08-01T07:20:42;17.70;99.90
13944;DHT22;7044;53.286;8.534;2022-08-01T07:23:09;17.60;97.90
13944;DHT22;7044;53.286;8.534;2022-08-01T07:25:35;17.60;97.40
13944;DHT22;7044;53.286;8.534;2022-08-01T07:28:02;17.50;95.00
13944;DHT22;7044;53.286;8.534;2022-08-01T07:30:29;17.50;96.50
13944;DHT22;7044;53.286;8.534;2022-08-01T07:32:56;17.50;98.00
13944;DHT22;7044;53.286;8.534;2022-08-01T07:37:52;17.70;99.90
13944;DHT22;7044;53.286;8.534;2022-08-01T07:40:19;17.90;99.60
13944;DHT22;7044;53.286;8.534;2022-08-01T07:42:47;17.90;94.90
13944;DHT22;7044;53.286;8.534;2022-08-01T07:47:41;17.70;90.10
13944;DHT22;7044;53.286;8.534;2022-08-01T07:50:08;17.60;90.00
13944;DHT22;7044;53.286;8.534;2022-08-01T07:55:05;17.70;90.40
13944;DHT22;7044;53.286;8.534;2022-08-01T07:57:32;17.70;91.60
13944;DHT22;7044;53.286;8.534;2022-08-01T08:00:00;17.60;91.70
13944;DHT22;7044;53.286;8.534;2022-08-01T08:02:27;17.60;87.90
13944;DHT22;7044;53.286;8.534;2022-08-01T08:04:53;17.90;93.50
13944;DHT22;7044;53.286;8.534;2022-08-01T08:07:20;17.80;88.10
13944;DHT22;7044;53.286;8.534;2022-08-01T08:09:47;18.00;90.80
13944;DHT22;7044;53.286;8.534;2022-08-01T08:12:15;17.90;91.30
13944;DHT22;7044;53.286;8.534;2022-08-01T08:14:42;17.70;89.00
13944;DHT22;7044;53.286;8.534;2022-08-01T08:17:09;17.90;92.80
13944;DHT22;7044;53.286;8.534;2022-08-01T08:22:05;18.70;93.20
13944;DHT22;7044;53.286;8.534;2022-08-01T08:24:31;18.40;84.80
13944;DHT22;7044;53.286;8.534;2022-08-01T08:26:59;18.30;67.40
13944;DHT22;7044;53.286;8.534;2022-08-01T08:29:29;18.20;53.90
13944;DHT22;7044;53.286;8.534;2022-08-01T08:31:58;18.20;55.80
13944;DHT22;7044;53.286;8.534;2022-08-01T08:34:26;17.80;74.00
13944;DHT22;7044;53.286;8.534;2022-08-01T08:36:54;18.50;72.00
13944;DHT22;7044;53.286;8.534;2022-08-01T08:39:22;18.50;65.00
13944;DHT22;7044;53.286;8.534;2022-08-01T08:44:16;18.50;53.10
13944;DHT22;7044;53.286;8.534;2022-08-01T08:46:46;18.50;58.20
13944;DHT22;7044;53.286;8.534;2022-08-01T08:49:17;18.20;38.70
13944;DHT22;7044;53.286;8.534;2022-08-01T08:51:47;18.10;31.10
13944;DHT22;7044;53.286;8.534;2022-08-01T08:54:15;18.30;51.30
13944;DHT22;7044;53.286;8.534;2022-08-01T08:56:43;18.30;36.70
13944;DHT22;7044;53.286;8.534;2022-08-01T08:59:11;18.30;37.80
13944;DHT22;7044;53.286;8.534;2022-08-01T09:01:40;18.50;26.30
13944;DHT22;7044;53.286;8.534;2022-08-01T09:04:08;18.30;24.60
13944;DHT22;7044;53.286;8.534;2022-08-01T09:06:35;18.30;32.30
13944;DHT22;7044;53.286;8.534;2022-08-01T09:09:02;18.40;28.00
13944;DHT22;7044;53.286;8.534;2022-08-01T09:11:29;18.30;32.90
13944;DHT22;7044;53.286;8.534;2022-08-01T09:14:05;18.20;30.90
13944;DHT22;7044;53.286;8.534;2022-08-01T09:16:32;18.20;36.30
13944;DHT22;7044;53.286;8.534;2022-08-01T09:19:12;18.20;44.80
13944;DHT22;7044;53.286;8.534;2022-08-01T09:21:41;18.40;34.40
13944;DHT22;7044;53.286;8.534;2022-08-01T09:24:22;16.70;29.40
13944;DHT22;7044;53.286;8.534;2022-08-01T09:26:49;18.50;28.60
13944;DHT22;7044;53.286;8.534;2022-08-01T09:29:21;18.10;10.60
13944;DHT22;7044;53.286;8.534;2022-08-01T09:31:48;18.40;8.50
13944;DHT22;7044;53.286;8.534;2022-08-01T09:34:24;18.20;15.80
13944;DHT22;7044;53.286;8.534;2022-08-01T09:36:52;18.50;1.00
13944;DHT22;7044;53.286;8.534;2022-08-01T09:39:22;18.70;11.80
13944;DHT22;7044;53.286;8.534;2022-08-01T09:41:50;18.70;19.90
13944;DHT22;7044;53.286;8.534;2022-08-01T09:44:17;18.70;21.10
13944;DHT22;7044;53.286;8.534;2022-08-01T09:46:49;18.70;20.80
13944;DHT22;7044;53.286;8.534;2022-08-01T09:49:27;18.70;12.30
13944;DHT22;7044;53.286;8.534;2022-08-01T09:51:55;18.70;12.30
13944;DHT22;7044;53.286;8.534;2022-08-01T09:54:31;18.70;5.70
13944;DHT22;7044;53.286;8.534;2022-08-01T09:57:09;18.90;7.90
13944;DHT22;7044;53.286;8.534;2022-08-01T10:02:06;18.80;22.40
13944;DHT22;7044;53.286;8.534;2022-08-01T10:04:35;18.80;15.30
13944;DHT22;7044;53.286;8.534;2022-08-01T10:07:06;18.80;24.60
13944;DHT22;7044;53.286;8.534;2022-08-01T10:09:34;18.50;1.00
13944;DHT22;7044;53.286;8.534;2022-08-01T10:12:03;18.70;1.00
13944;DHT22;7044;53.286;8.534;2022-08-01T10:14:31;18.80;1.00
13944;DHT22;7044;53.286;8.534;2022-08-01T10:16:59;17.10;7.50
13944;DHT22;7044;53.286;8.534;2022-08-01T10:19:28;18.50;1.00
13944;DHT22;7044;53.286;8.534;2022-08-01T10:21:57;19.00;1.00
13944;DHT22;7044;53.286;8.534;2022-08-01T10:24:26;19.00;1.00
13944;DHT22;7044;53.286;8.534;2022-08-01T10:26:56;18.90;1.00
13944;DHT22;7044;53.286;8.534;2022-08-01T10:29:26;18.90;1.00
13944;DHT22;7044;53.286;8.534;2022-08-01T10:31:53;18.70;1.00
13944;DHT22;7044;53.286;8.534;2022-08-01T10:36:48;18.90;15.90
13944;DHT22;7044;53.286;8.534;2022-08-01T10:39:17;18.90;16.40
13944;DHT22;7044;53.286;8.534;2022-08-01T10:41:45;18.80;1.00
13944;DHT22;7044;53.286;8.534;2022-08-01T10:44:13;18.90;1.00
13944;DHT22;7044;53.286;8.534;2022-08-01T10:46:46;18.90;1.00
13944;DHT22;7044;53.286;8.534;2022-08-01T10:49:17;19.00;1.00
13944;DHT22;7044;53.286;8.534;2022-08-01T10:51:45;19.00;2.00
13944;DHT22;7044;53.286;8.534;2022-08-01T10:54:12;19.00;1.00
13944;DHT22;7044;53.286;8.534;2022-08-01T10:56:43;19.00;1.00
13944;DHT22;7044;53.286;8.534;2022-08-01T10:59:14;19.00;1.00
13944;DHT22;7044;53.286;8.534;2022-08-01T11:01:41;19.00;1.00
13944;DHT22;7044;53.286;8.534;2022-08-01T11:04:11;19.10;1.00
13944;DHT22;7044;53.286;8.534;2022-08-01T11:12:02;19.20;1.00
13944;DHT22;7044;53.286;8.534;2022-08-01T11:14:31;19.20;1.00
13944;DHT22;7044;53.286;8.534;2022-08-01T11:20:09;19.20;1.00
13944;DHT22;7044;53.286;8.534;2022-08-01T11:26:23;18.80;1.00
13944;DHT22;7044;53.286;8.534;2022-08-01T11:29:14;18.80;1.00
13944;DHT22;7044;53.286;8.534;2022-08-01T11:31:41;19.10;1.00
13944;DHT22;7044;53.286;8.534;2022-08-01T11:34:08;18.90;1.00
13944;DHT22;7044;53.286;8.534;2022-08-01T11:36:36;19.10;1.00
13944;DHT22;7044;53.286;8.534;2022-08-01T11:39:16;19.00;1.00
13944;DHT22;7044;53.286;8.534;2022-08-01T11:41:45;18.80;1.00
13944;DHT22;7044;53.286;8.534;2022-08-01T11:44:16;18.40;1.00
13944;DHT22;7044;53.286;8.534;2022-08-01T11:46:55;18.80;1.00
13944;DHT22;7044;53.286;8.534;2022-08-01T11:49:23;19.00;1.00
13944;DHT22;7044;53.286;8.534;2022-08-01T11:51:57;18.80;1.00
13944;DHT22;7044;53.286;8.534;2022-08-01T11:54:26;19.00;1.00
13944;DHT22;7044;53.286;8.534;2022-08-01T11:56:56;18.90;1.00
13944;DHT22;7044;53.286;8.534;2022-08-01T11:59:25;19.30;41.90
13944;DHT22;7044;53.286;8.534;2022-08-01T12:01:52;18.80;1.00
13944;DHT22;7044;53.286;8.534;2022-08-01T12:04:19;19.00;1.00
13944;DHT22;7044;53.286;8.534;2022-08-01T12:09:22;19.20;1.00
13944;DHT22;7044;53.286;8.534;2022-08-01T12:11:49;19.20;1.00
13944;DHT22;7044;53.286;8.534;2022-08-01T12:14:18;19.10;99.90
13944;DHT22;7044;53.286;8.534;2022-08-01T12:16:53;18.90;99.90
13944;DHT22;7044;53.286;8.534;2022-08-01T12:22:07;19.10;1.00
13944;DHT22;7044;53.286;8.534;2022-08-01T12:24:35;19.10;1.00
13944;DHT22;7044;53.286;8.534;2022-08-01T12:27:02;19.20;1.00
13944;DHT22;7044;53.286;8.534;2022-08-01T12:29:37;19.10;1.00
13944;DHT22;7044;53.286;8.534;2022-08-01T12:32:21;19.10;1.00
13944;DHT22;7044;53.286;8.534;2022-08-01T12:34:48;17.80;1.00
13944;DHT22;7044;53.286;8.534;2022-08-01T12:37:16;19.20;99.90
13944;DHT22;7044;53.286;8.534;2022-08-01T12:39:43;18.30;99.90
13944;DHT22;7044;53.286;8.534;2022-08-01T12:42:11;19.40;99.90
13944;DHT22;7044;53.286;8.534;2022-08-01T12:44:39;19.20;1.00
13944;DHT22;7044;53.286;8.534;2022-08-01T12:47:08;19.00;99.90
13944;DHT22;7044;53.286;8.534;2022-08-01T12:49:35;19.10;1.00
13944;DHT22;7044;53.286;8.534;2022-08-01T12:52:04;19.00;1.00
13944;DHT22;7044;53.286;8.534;2022-08-01T12:55:09;19.10;1.00
13944;DHT22;7044;53.286;8.534;2022-08-01T12:57:38;19.10;99.90
13944;DHT22;7044;53.286;8.534;2022-08-01T13:00:20;19.00;99.90
13944;DHT22;7044;53.286;8.534;2022-08-01T13:02:50;19.10;1.00
13944;DHT22;7044;53.286;8.534;2022-08-01T13:05:17;19.10;1.00
13944;DHT22;7044;53.286;8.534;2022-08-01T13:07:47;19.30;1.00
13944;DHT22;7044;53.286;8.534;2022-08-01T13:10:23;19.10;99.90
13944;DHT22;7044;53.286;8.534;2022-08-01T13:12:52;18.90;99.90
13944;DHT22;7044;53.286;8.534;2022-08-01T13:15:22;19.00;99.90
13944;DHT22;7044;53.286;8.534;2022-08-01T13:17:54;19.00;1.00
13944;DHT22;7044;53.286;8.534;2022-08-01T13:20:29;19.00;99.90
13944;DHT22;7044;53.286;8.534;2022-08-01T13:23:10;19.00;1.00
13944;DHT22;7044;53.286;8.534;2022-08-01T13:25:47;19.10;99.90
13944;DHT22;7044;53.286;8.534;2022-08-01T13:28:14;19.10;99.90
13944;DHT22;7044;53.286;8.534;2022-08-01T13:30:51;19.10;99.90
13944;DHT22;7044;53.286;8.534;2022-08-01T13:33:19;19.30;99.90
13944;DHT22;7044;53.286;8.534;2022-08-01T13:35:46;19.10;99.90
13944;DHT22;7044;53.286;8.534;2022-08-01T13:38:13;21.00;99.90
13944;DHT22;7044;53.286;8.534;2022-08-01T13:40:40;18.00;46.80
13944;DHT22;7044;53.286;8.534;2022-08-01T13:45:34;18.00;99.90
13944;DHT22;7044;53.286;8.534;2022-08-01T13:48:01;18.30;99.90
13944;DHT22;7044;53.286;8.534;2022-08-01T13:50:29;18.70;99.90
13944;DHT22;7044;53.286;8.534;2022-08-01T13:52:58;18.80;99.90
13944;DHT22;7044;53.286;8.534;2022-08-01T13:55:25;18.60;99.90
13944;DHT22;7044;53.286;8.534;2022-08-01T14:00:19;19.90;99.90
13944;DHT22;7044;53.286;8.534;2022-08-01T14:02:46;18.80;99.90
13944;DHT22;7044;53.286;8.534;2022-08-01T14:05:13;18.90;47.90
13944;DHT22;7044;53.286;8.534;2022-08-01T14:07:41;19.00;99.90
13944;DHT22;7044;53.286;8.534;2022-08-01T14:10:08;19.10;99.90
13944;DHT22;7044;53.286;8.534;2022-08-01T14:12:35;19.10;1.00
13944;DHT22;7044;53.286;8.534;2022-08-01T14:15:02;19.00;1.00
13944;DHT22;7044;53.286;8.534;2022-08-01T14:17:29;19.10;1.00
13944;DHT22;7044;53.286;8.534;2022-08-01T14:19:56;22.40;1.00
13944;DHT22;7044;53.286;8.534;2022-08-01T14:22:24;19.10;1.00
13944;DHT22;7044;53.286;8.534;2022-08-01T14:24:53;19.00;1.00
13944;DHT22;7044;53.286;8.534;2022-08-01T14:27:19;19.10;1.00
13944;DHT22;7044;53.286;8.534;2022-08-01T14:29:46;18.70;1.00
13944;DHT22;7044;53.286;8.534;2022-08-01T14:32:13;19.20;1.00
13944;DHT22;7044;53.286;8.534;2022-08-01T14:34:40;19.20;1.00
13944;DHT22;7044;53.286;8.534;2022-08-01T14:37:07;19.20;1.00
13944;DHT22;7044;53.286;8.534;2022-08-01T14:39:34;19.50;99.90
13944;DHT22;7044;53.286;8.534;2022-08-01T14:42:02;19.00;99.90
13944;DHT22;7044;53.286;8.534;2022-08-01T14:46:56;18.90;99.90
13944;DHT22;7044;53.286;8.534;2022-08-01T14:49:23;18.80;99.90
13944;DHT22;7044;53.286;8.534;2022-08-01T14:51:50;18.50;99.90
13944;DHT22;7044;53.286;8.534;2022-08-01T14:54:17;19.40;1.00
13944;DHT22;7044;53.286;8.534;2022-08-01T14:56:44;18.70;99.90
13944;DHT22;7044;53.286;8.534;2022-08-01T14:59:12;19.00;99.90
13944;DHT22;7044;53.286;8.534;2022-08-01T15:01:39;18.90;99.90
13944;DHT22;7044;53.286;8.534;2022-08-01T15:04:06;19.00;99.90
13944;DHT22;7044;53.286;8.534;2022-08-01T15:06:33;17.60;1.00
13944;DHT22;7044;53.286;8.534;2022-08-01T15:09:00;19.10;99.90
13944;DHT22;7044;53.286;8.534;2022-08-01T15:13:54;18.90;99.90
13944;DHT22;7044;53.286;8.534;2022-08-01T15:16:36;19.10;99.90
13944;DHT22;7044;53.286;8.534;2022-08-01T15:19:03;18.80;99.90
13944;DHT22;7044;53.286;8.534;2022-08-01T15:21:30;18.90;99.90
13944;DHT22;7044;53.286;8.534;2022-08-01T15:23:57;18.90;99.90
13944;DHT22;7044;53.286;8.534;2022-08-01T15:26:24;18.90;99.90
13944;DHT22;7044;53.286;8.534;2022-08-01T15:31:18;19.10;1.00
13944;DHT22;7044;53.286;8.534;2022-08-01T15:33:46;19.30;1.00
13944;DHT22;7044;53.286;8.534;2022-08-01T15:38:40;19.10;99.90
13944;DHT22;7044;53.286;8.534;2022-08-01T15:41:07;19.00;99.90
13944;DHT22;7044;53.286;8.534;2022-08-01T15:43:34;19.00;1.00
13944;DHT22;7044;53.286;8.534;2022-08-01T15:46:00;17.60;1.00
13944;DHT22;7044;53.286;8.534;2022-08-01T15:48:27;19.10;1.00
13944;DHT22;7044;53.286;8.534;2022-08-01T15:50:55;19.00;99.90
13944;DHT22;7044;53.286;8.534;2022-08-01T15:53:22;19.00;1.00
13944;DHT22;7044;53.286;8.534;2022-08-01T15:55:49;19.00;1.00
13944;DHT22;7044;53.286;8.534;2022-08-01T15:58:16;19.00;99.90
13944;DHT22;7044;53.286;8.534;2022-08-01T16:03:10;19.00;1.00
13944;DHT22;7044;53.286;8.534;2022-08-01T16:05:37;19.10;1.00
13944;DHT22;7044;53.286;8.534;2022-08-01T16:08:05;18.40;99.90
13944;DHT22;7044;53.286;8.534;2022-08-01T16:10:32;19.00;99.90
13944;DHT22;7044;53.286;8.534;2022-08-01T16:12:59;18.90;99.90
13944;DHT22;7044;53.286;8.534;2022-08-01T16:15:26;18.80;99.90
13944;DHT22;7044;53.286;8.534;2022-08-01T16:17:53;18.80;99.90
13944;DHT22;7044;53.286;8.534;2022-08-01T16:20:20;18.90;1.00
13944;DHT22;7044;53.286;8.534;2022-08-01T16:22:47;18.90;99.90
13944;DHT22;7044;53.286;8.534;2022-08-01T16:25:15;19.00;1.00
13944;DHT22;7044;53.286;8.534;2022-08-01T16:30:11;18.90;99.90
13944;DHT22;7044;53.286;8.534;2022-08-01T16:32:38;18.90;99.90
13944;DHT22;7044;53.286;8.534;2022-08-01T16:37:32;19.10;99.90
13944;DHT22;7044;53.286;8.534;2022-08-01T16:39:59;19.20;99.90
13944;DHT22;7044;53.286;8.534;2022-08-01T16:42:27;19.00;99.90
13944;DHT22;7044;53.286;8.534;2022-08-01T16:44:54;19.00;99.90
13944;DHT22;7044;53.286;8.534;2022-08-01T16:47:23;18.80;99.90
13944;DHT22;7044;53.286;8.534;2022-08-01T16:49:50;19.30;99.90
13944;DHT22;7044;53.286;8.534;2022-08-01T16:52:17;19.00;99.90
13944;DHT22;7044;53.286;8.534;2022-08-01T16:54:44;18.70;99.90
13944;DHT22;7044;53.286;8.534;2022-08-01T16:57:11;18.90;99.90
13944;DHT22;7044;53.286;8.534;2022-08-01T16:59:39;18.90;99.90
13944;DHT22;7044;53.286;8.534;2022-08-01T17:04:34;18.90;99.90
13944;DHT22;7044;53.286;8.534;2022-08-01T17:07:01;18.80;99.90
13944;DHT22;7044;53.286;8.534;2022-08-01T17:09:27;18.70;99.90
13944;DHT22;7044;53.286;8.534;2022-08-01T17:11:54;18.60;99.90
13944;DHT22;7044;53.286;8.534;2022-08-01T17:14:21;18.40;99.90
13944;DHT22;7044;53.286;8.534;2022-08-01T17:16:49;16.70;99.90
13944;DHT22;7044;53.286;8.534;2022-08-01T17:19:16;18.60;99.90
13944;DHT22;7044;53.286;8.534;2022-08-01T17:21:44;18.60;99.90
13944;DHT22;7044;53.286;8.534;2022-08-01T17:26:38;18.60;99.90
13944;DHT22;7044;53.286;8.534;2022-08-01T17:29:05;18.50;99.90
13944;DHT22;7044;53.286;8.534;2022-08-01T17:31:32;15.50;99.90